Corning, AR (72422)

4:01 PM CST on February 14, 2016 (GMT -0600)
Corning | | Change Station
CLOSE
Current Station
Airport
Location: Corning,
Elevation: 292 ft
Nearby Weather Stations
Active Advisory: Winter Weather Advisory

Elev 292 ft 36.40 °N, 90.65 °W | Updated 26 minutes ago

Clear
Clear
28 °F
Feels Like 22 °F
N
6
Wind Variable Wind from East

Today
High -- | Low -- °F
--% Chance of Precip.
Yesterday
High -- | Low -- °F
Precip. -- in
Pressure 30.02 in
Visibility 1.8 miles
Clouds Clear
Windchill 22 °F
Dew Point 28 °F
Humidity 100%
Rainfall 0.25 in
Snow Depth Not available.
6:51 AM 5:41 PM
Waxing Crescent, 45% visible
METAR K4M9 142135Z AUTO 08005KT 1 3/4SM -RA CLR M02/M02 A3002 RMK AO2 P0001
Pressure 30.02 in
Visibility 1.8 miles
Clouds Clear
Windchill 22 °F
Dew Point 28 °F
Humidity 100%
Rainfall 0.25 in
Snow Depth Not available.
6:51 AM 5:41 PM
Waxing Crescent, 45% visible
METAR K4M9 142135Z AUTO 08005KT 1 3/4SM -RA CLR M02/M02 A3002 RMK AO2 P0001

10-Day Weather Forecast

Almanac

Astronomy

Feb. 14, 2016 Rise Set
Actual Time
Civil Twilight
Nautical Twilight
Astronomical Twilight
Moon
Length of Visible Light
Length of Day
Tomorrow will be .
, % of the Moon is Illuminated

Today's Extremes

State Highs State Lows

Community

WunderPhotos

Upload Photos

1,892,890 photos uploaded!

WunderBlog® & News

Nearby

Air Quality

  Air Quality AQ Index Pollutant
Not available.

Snow Depth

Station Depth Elevation

Earthquake Activity

City Distance Mag. Time & Date
Minimum magnitude displayed is 2.5.

Coastal Water Temperatures

Place Temperature

Stations

Nearby Weather Stations

Station Location Temp. Windchill Dew Point Humidity Wind Precip. Elev Updated Type
                   

Watches & Warnings

Winter Weather Advisory
Issued: 3:42 PM CST Feb. 14, 2016 – National Weather Service

... Winter Weather Advisory now in effect until midnight CST
tonight...

* ice accumulations... less than 0.10 inch of ice accumulation
possible.

* Timing... through 12 am CST tonight.

* Impacts... ice on roadways could create hazardous travel in the
advisory area. Bridges and overpasses as well as other
elevated roadways will be prone to ice and could become slick.

Precautionary/preparedness actions...

A Winter Weather Advisory means that periods of snow... sleet... or
freezing rain will cause travel difficulties. Be prepared for
slippery roads... and use caution while driving.



Zdm